sensor_id;sensor_type;location;lat;lon;timestamp;pressure;altitude;pressure_sealevel;temperature;humidity
76044;BME280;64740;34.694;33.088;2023-04-06T00:01:23;1038.4;;;19.4;50.2
76044;BME280;64740;34.694;33.088;2023-04-06T00:06:37;1038.4;;;19.4;50.2
76044;BME280;64740;34.694;33.088;2023-04-06T00:10:59;1038.4;;;19.4;50.2
76044;BME280;64740;34.694;33.088;2023-04-06T00:16:23;1038.4;;;19.4;50.3
76044;BME280;64740;34.694;33.088;2023-04-06T00:21:17;1038.4;;;19.4;50.1
76044;BME280;64740;34.694;33.088;2023-04-06T00:26:23;1038.3;;;19.4;50.1
76044;BME280;64740;34.694;33.088;2023-04-06T00:31:11;1038.4;;;19.4;50.1
76044;BME280;64740;34.694;33.088;2023-04-06T00:36:37;1038.4;;;19.4;50
76044;BME280;64740;34.694;33.088;2023-04-06T00:41:17;1038.4;;;19.4;50.1
76044;BME280;64740;34.694;33.088;2023-04-06T00:46:17;1038.3;;;19.4;50.2
76044;BME280;64740;34.694;33.088;2023-04-06T00:51:23;1038.3;;;19.4;50.3
76044;BME280;64740;34.694;33.088;2023-04-06T00:56:17;1038.3;;;19.4;50.4
76044;BME280;64740;34.694;33.088;2023-04-06T01:01:37;1038.2;;;19.4;50.5
76044;BME280;64740;34.694;33.088;2023-04-06T01:06:11;1038.2;;;19.4;50.6
76044;BME280;64740;34.694;33.088;2023-04-06T01:11:17;1038.2;;;19.3;50.7
76044;BME280;64740;34.694;33.088;2023-04-06T01:16:21;1038.2;;;19.3;50.9
76044;BME280;64740;34.694;33.088;2023-04-06T01:21:05;1038.2;;;19.4;51
76044;BME280;64740;34.694;33.088;2023-04-06T01:26:36;1038.2;;;19.4;51.1
76044;BME280;64740;34.694;33.088;2023-04-06T01:31:17;1038.2;;;19.4;51.2
76044;BME280;64740;34.694;33.088;2023-04-06T01:36:11;1038.2;;;19.4;51.3
76044;BME280;64740;34.694;33.088;2023-04-06T01:41:21;1038.2;;;19.4;51.4
76044;BME280;64740;34.694;33.088;2023-04-06T01:46:17;1038.2;;;19.4;51.4
76044;BME280;64740;34.694;33.088;2023-04-06T01:51:37;1038.2;;;19.4;51.3
76044;BME280;64740;34.694;33.088;2023-04-06T01:56:05;1038.2;;;19.3;51.2
76044;BME280;64740;34.694;33.088;2023-04-06T02:01:17;1038.2;;;19.3;51.3
76044;BME280;64740;34.694;33.088;2023-04-06T02:06:37;1038.3;;;19.2;51.3
76044;BME280;64740;34.694;33.088;2023-04-06T02:11:17;1038.3;;;19.1;51.5
76044;BME280;64740;34.694;33.088;2023-04-06T02:16:37;1038.3;;;19.1;51.4
76044;BME280;64740;34.694;33.088;2023-04-06T02:21:17;1038.3;;;19.1;51.4
76044;BME280;64740;34.694;33.088;2023-04-06T02:26:17;1038.3;;;19;51.3
76044;BME280;64740;34.694;33.088;2023-04-06T02:31:15;1038.3;;;18.9;51.4
76044;BME280;64740;34.694;33.088;2023-04-06T02:36:11;1038.3;;;18.9;51.5
76044;BME280;64740;34.694;33.088;2023-04-06T02:41:37;1038.2;;;18.9;51.7
76044;BME280;64740;34.694;33.088;2023-04-06T02:46:17;1038.2;;;18.9;51.8
76044;BME280;64740;34.694;33.088;2023-04-06T02:51:05;1038.2;;;18.9;51.9
76044;BME280;64740;34.694;33.088;2023-04-06T02:56:23;1038.3;;;18.9;51.9
76044;BME280;64740;34.694;33.088;2023-04-06T03:01:05;1038.3;;;18.9;51.8
76044;BME280;64740;34.694;33.088;2023-04-06T03:06:37;1038.4;;;18.9;51.7
76044;BME280;64740;34.694;33.088;2023-04-06T03:10:59;1038.3;;;18.9;52
76044;BME280;64740;34.694;33.088;2023-04-06T03:16:05;1038.3;;;18.9;52.2
76044;BME280;64740;34.694;33.088;2023-04-06T03:21:23;1038.3;;;18.9;52.3
76044;BME280;64740;34.694;33.088;2023-04-06T03:26:17;1038.3;;;18.9;52.5
76044;BME280;64740;34.694;33.088;2023-04-06T03:31:37;1038.2;;;18.9;52.6
76044;BME280;64740;34.694;33.088;2023-04-06T03:36:17;1038.3;;;18.9;52.7
76044;BME280;64740;34.694;33.088;2023-04-06T03:40:59;1038.3;;;19;52.7
76044;BME280;64740;34.694;33.088;2023-04-06T03:45:59;1038.3;;;19;52.5
76044;BME280;64740;34.694;33.088;2023-04-06T03:51:23;1038.3;;;19.1;52.3
76044;BME280;64740;34.694;33.088;2023-04-06T03:56:37;1038.3;;;19;52.1
76044;BME280;64740;34.694;33.088;2023-04-06T04:01:15;1038.4;;;19;52.2
76044;BME280;64740;34.694;33.088;2023-04-06T04:06:17;1038.4;;;19;52
76044;BME280;64740;34.694;33.088;2023-04-06T04:11:17;1038.4;;;19;52.2
76044;BME280;64740;34.694;33.088;2023-04-06T04:16:11;1038.4;;;19.1;52.4
76044;BME280;64740;34.694;33.088;2023-04-06T04:21:41;1038.5;;;19.2;52.4
76044;BME280;64740;34.694;33.088;2023-04-06T04:26:11;1038.5;;;19.2;52.4
76044;BME280;64740;34.694;33.088;2023-04-06T04:30:59;1038.5;;;19.3;52.4
76044;BME280;64740;34.694;33.088;2023-04-06T04:36:21;1038.5;;;19.4;52.3
76044;BME280;64740;34.694;33.088;2023-04-06T04:41:05;1038.5;;;19.5;52.3
76044;BME280;64740;34.694;33.088;2023-04-06T04:46:35;1038.5;;;19.6;52.3
76044;BME280;64740;34.694;33.088;2023-04-06T04:51:15;1038.6;;;19.7;52.3
76044;BME280;64740;34.694;33.088;2023-04-06T04:56:17;1038.5;;;19.8;52.3
76044;BME280;64740;34.694;33.088;2023-04-06T05:01:21;1038.6;;;19.9;52.2
76044;BME280;64740;34.694;33.088;2023-04-06T05:06:11;1038.6;;;19.9;52.2
76044;BME280;64740;34.694;33.088;2023-04-06T05:11:35;1038.6;;;19.9;52.3
76044;BME280;64740;34.694;33.088;2023-04-06T05:16:17;1038.6;;;20;52.2
76044;BME280;64740;34.694;33.088;2023-04-06T05:21:37;1038.7;;;20.1;52.2
76044;BME280;64740;34.694;33.088;2023-04-06T05:26:23;1038.7;;;20.2;52
76044;BME280;64740;34.694;33.088;2023-04-06T05:30:59;1038.8;;;20.3;51.7
76044;BME280;64740;34.694;33.088;2023-04-06T05:36:35;1038.8;;;20.3;51.6
76044;BME280;64740;34.694;33.088;2023-04-06T05:41:11;1038.7;;;20.4;51.6
76044;BME280;64740;34.694;33.088;2023-04-06T05:45:59;1038.7;;;20.4;51.6
76044;BME280;64740;34.694;33.088;2023-04-06T05:50:59;1038.8;;;20.4;51.3
76044;BME280;64740;34.694;33.088;2023-04-06T05:56:00;1038.8;;;20.5;51.6
76044;BME280;64740;34.694;33.088;2023-04-06T06:01:35;1038.9;;;20.6;50.9
76044;BME280;64740;34.694;33.088;2023-04-06T06:06:15;1039;;;20.7;50.6
76044;BME280;64740;34.694;33.088;2023-04-06T06:11:05;1039;;;20.9;50.1
76044;BME280;64740;34.694;33.088;2023-04-06T06:16:21;1039.1;;;21.1;48.9
76044;BME280;64740;34.694;33.088;2023-04-06T06:20:59;1039.2;;;21.2;48
76044;BME280;64740;34.694;33.088;2023-04-06T06:26:37;1039.2;;;21.2;47.1
76044;BME280;64740;34.694;33.088;2023-04-06T06:30:59;1039.2;;;21.3;47
76044;BME280;64740;34.694;33.088;2023-04-06T06:35:59;1039.3;;;21.3;46.6
76044;BME280;64740;34.694;33.088;2023-04-06T06:41:13;1039.2;;;21.5;45.6
76044;BME280;64740;34.694;33.088;2023-04-06T06:46:17;1039.2;;;21.7;45.2
76044;BME280;64740;34.694;33.088;2023-04-06T06:51:33;1039.1;;;21.6;45.4
76044;BME280;64740;34.694;33.088;2023-04-06T06:56:15;1039.1;;;21.7;46.3
76044;BME280;64740;34.694;33.088;2023-04-06T07:00:59;1039.1;;;21.5;46.1
76044;BME280;64740;34.694;33.088;2023-04-06T07:06:21;1039;;;21.4;46.9
76044;BME280;64740;34.694;33.088;2023-04-06T07:11:05;1039;;;21.4;46.8
76044;BME280;64740;34.694;33.088;2023-04-06T07:16:35;1039;;;21.5;46.8
76044;BME280;64740;34.694;33.088;2023-04-06T07:21:09;1039;;;21.6;46.2
76044;BME280;64740;34.694;33.088;2023-04-06T07:26:05;1039.1;;;21.7;46.8
76044;BME280;64740;34.694;33.088;2023-04-06T07:31:21;1039.1;;;21.7;45.8
76044;BME280;64740;34.694;33.088;2023-04-06T07:36:05;1039.1;;;21.7;45.8
76044;BME280;64740;34.694;33.088;2023-04-06T07:41:35;1039.2;;;21.7;45.9
76044;BME280;64740;34.694;33.088;2023-04-06T07:45:59;1039.2;;;21.8;44.9
76044;BME280;64740;34.694;33.088;2023-04-06T07:51:17;1039.2;;;21.8;45.1
76044;BME280;64740;34.694;33.088;2023-04-06T07:56:21;1039.3;;;22;44.1
76044;BME280;64740;34.694;33.088;2023-04-06T08:01:17;1039.3;;;22.1;43.4
76044;BME280;64740;34.694;33.088;2023-04-06T08:06:29;1039.4;;;22.1;42.4
76044;BME280;64740;34.694;33.088;2023-04-06T08:10:59;1039.4;;;22.1;41.3
76044;BME280;64740;34.694;33.088;2023-04-06T08:15:59;1039.4;;;22.1;41.4
76044;BME280;64740;34.694;33.088;2023-04-06T08:21:35;1039.3;;;22.1;40.1
76044;BME280;64740;34.694;33.088;2023-04-06T08:25:59;1039.4;;;22.1;39.4
76044;BME280;64740;34.694;33.088;2023-04-06T08:31:36;1039.3;;;22.1;39.8
76044;BME280;64740;34.694;33.088;2023-04-06T08:36:12;1039.3;;;22.1;39.6
76044;BME280;64740;34.694;33.088;2023-04-06T08:41:35;1039.3;;;22.1;39.3
76044;BME280;64740;34.694;33.088;2023-04-06T08:46:21;1039.3;;;22;38.4
76044;BME280;64740;34.694;33.088;2023-04-06T08:51:11;1039.3;;;21.9;37.6
76044;BME280;64740;34.694;33.088;2023-04-06T08:56:37;1039.3;;;21.9;37.8
76044;BME280;64740;34.694;33.088;2023-04-06T09:01:17;1039.3;;;21.9;38.8
76044;BME280;64740;34.694;33.088;2023-04-06T09:06:36;1039.3;;;22;39
76044;BME280;64740;34.694;33.088;2023-04-06T09:11:21;1039.2;;;22;40.3
76044;BME280;64740;34.694;33.088;2023-04-06T09:16:05;1039.1;;;22;40
76044;BME280;64740;34.694;33.088;2023-04-06T09:21:35;1039.1;;;22.1;40
76044;BME280;64740;34.694;33.088;2023-04-06T09:26:16;1039.1;;;22.1;40.5
76044;BME280;64740;34.694;33.088;2023-04-06T09:31:33;1039;;;22.1;40.6
76044;BME280;64740;34.694;33.088;2023-04-06T09:36:31;1039;;;22.1;40.9
76044;BME280;64740;34.694;33.088;2023-04-06T09:40:59;1039;;;22.2;41.8
76044;BME280;64740;34.694;33.088;2023-04-06T09:46:36;1039;;;22.3;42.1
76044;BME280;64740;34.694;33.088;2023-04-06T09:51:00;1038.9;;;22.3;42.8
76044;BME280;64740;34.694;33.088;2023-04-06T09:56:38;1038.9;;;22.3;41.5
76044;BME280;64740;34.694;33.088;2023-04-06T10:01:19;1038.8;;;22.3;42.7
76044;BME280;64740;34.694;33.088;2023-04-06T10:06:00;1038.8;;;22.4;41.9
76044;BME280;64740;34.694;33.088;2023-04-06T10:11:35;1038.7;;;22.5;42.6
76044;BME280;64740;34.694;33.088;2023-04-06T10:16:15;1038.7;;;22.6;42.4
76044;BME280;64740;34.694;33.088;2023-04-06T10:21:35;1038.7;;;22.7;43.4
76044;BME280;64740;34.694;33.088;2023-04-06T10:26:20;1038.6;;;22.8;44
76044;BME280;64740;34.694;33.088;2023-04-06T10:31:05;1038.5;;;23;43.5
76044;BME280;64740;34.694;33.088;2023-04-06T10:36:36;1038.5;;;23.1;43
76044;BME280;64740;34.694;33.088;2023-04-06T10:41:03;1038.4;;;23.3;42.3
76044;BME280;64740;34.694;33.088;2023-04-06T10:46:35;1038.4;;;23.6;42.4
76044;BME280;64740;34.694;33.088;2023-04-06T10:51:16;1038.4;;;23.8;42.7
76044;BME280;64740;34.694;33.088;2023-04-06T10:55:59;1038.5;;;24;41.9
76044;BME280;64740;34.694;33.088;2023-04-06T11:01:37;1038.5;;;24.2;41.4
76044;BME280;64740;34.694;33.088;2023-04-06T11:06:21;1038.5;;;24.3;41.1
76044;BME280;64740;34.694;33.088;2023-04-06T11:11:38;1038.5;;;24.4;41
76044;BME280;64740;34.694;33.088;2023-04-06T11:16:20;1038.4;;;24.5;40.6
76044;BME280;64740;34.694;33.088;2023-04-06T11:20:59;1038.3;;;24.7;40
76044;BME280;64740;34.694;33.088;2023-04-06T11:26:37;1038.2;;;24.8;39.4
76044;BME280;64740;34.694;33.088;2023-04-06T11:31:15;1038.2;;;25;39.1
76044;BME280;64740;34.694;33.088;2023-04-06T11:36:33;1038.1;;;25;39.6
76044;BME280;64740;34.694;33.088;2023-04-06T11:41:23;1038.1;;;25.1;40
76044;BME280;64740;34.694;33.088;2023-04-06T11:46:05;1038;;;25.2;39.1
76044;BME280;64740;34.694;33.088;2023-04-06T11:51:37;1037.9;;;25.3;39.5
76044;BME280;64740;34.694;33.088;2023-04-06T11:55:59;1037.9;;;25.3;40.1
76044;BME280;64740;34.694;33.088;2023-04-06T12:01:44;1037.9;;;25.4;41
76044;BME280;64740;34.694;33.088;2023-04-06T12:06:22;1038.1;;;25.4;40.4
76044;BME280;64740;34.694;33.088;2023-04-06T12:11:11;1038.1;;;25.4;40
76044;BME280;64740;34.694;33.088;2023-04-06T12:16:35;1038.1;;;25.2;39
76044;BME280;64740;34.694;33.088;2023-04-06T12:21:15;1038.1;;;25.4;38.3
76044;BME280;64740;34.694;33.088;2023-04-06T12:26:35;1038.1;;;25.4;38.7
76044;BME280;64740;34.694;33.088;2023-04-06T12:31:37;1038.2;;;25.4;38.3
76044;BME280;64740;34.694;33.088;2023-04-06T12:36:10;1038;;;25.4;38.6
76044;BME280;64740;34.694;33.088;2023-04-06T12:41:35;1038.1;;;25.4;39.6
76044;BME280;64740;34.694;33.088;2023-04-06T12:46:13;1038;;;25.3;40
76044;BME280;64740;34.694;33.088;2023-04-06T12:51:35;1038;;;25.2;40
76044;BME280;64740;34.694;33.088;2023-04-06T12:56:21;1037.9;;;25.5;39.6
76044;BME280;64740;34.694;33.088;2023-04-06T13:01:06;1037.9;;;25.5;39.1
76044;BME280;64740;34.694;33.088;2023-04-06T13:06:35;1038;;;25.4;39.7
76044;BME280;64740;34.694;33.088;2023-04-06T13:11:15;1037.9;;;25.5;39.3
76044;BME280;64740;34.694;33.088;2023-04-06T13:16:35;1037.9;;;25.7;39.4
76044;BME280;64740;34.694;33.088;2023-04-06T13:21:21;1037.9;;;25.7;39
76044;BME280;64740;34.694;33.088;2023-04-06T13:26:00;1037.8;;;25.7;38.7
76044;BME280;64740;34.694;33.088;2023-04-06T13:31:35;1037.8;;;25.8;39.1
76044;BME280;64740;34.694;33.088;2023-04-06T13:36:15;1037.9;;;25.9;38.6
76044;BME280;64740;34.694;33.088;2023-04-06T13:41:38;1037.9;;;25.7;39.3
76044;BME280;64740;34.694;33.088;2023-04-06T13:46:21;1037.9;;;25.6;39.5
76044;BME280;64740;34.694;33.088;2023-04-06T13:51:25;1038;;;25.5;39.4
76044;BME280;64740;34.694;33.088;2023-04-06T13:56:37;1038;;;25.5;39.3
76044;BME280;64740;34.694;33.088;2023-04-06T14:01:08;1038;;;25.5;39.1
76044;BME280;64740;34.694;33.088;2023-04-06T14:06:17;1037.9;;;25.5;38.7
76044;BME280;64740;34.694;33.088;2023-04-06T14:11:24;1038;;;25.4;38.7
76044;BME280;64740;34.694;33.088;2023-04-06T14:15:59;1038;;;25.2;39.4
76044;BME280;64740;34.694;33.088;2023-04-06T14:21:38;1038;;;25;40.1
76044;BME280;64740;34.694;33.088;2023-04-06T14:26:08;1037.9;;;25.1;39.6
76044;BME280;64740;34.694;33.088;2023-04-06T14:31:39;1038.1;;;25.2;39.5
76044;BME280;64740;34.694;33.088;2023-04-06T14:36:25;1038;;;25;39.5
76044;BME280;64740;34.694;33.088;2023-04-06T14:41:14;1037.9;;;24.9;39.3
76044;BME280;64740;34.694;33.088;2023-04-06T14:46:37;1037.9;;;24.8;39.9
76044;BME280;64740;34.694;33.088;2023-04-06T14:51:17;1038;;;24.9;39.7
76044;BME280;64740;34.694;33.088;2023-04-06T14:56:40;1038.1;;;24.8;40.1
76044;BME280;64740;34.694;33.088;2023-04-06T15:01:40;1038.1;;;24.6;40.5
76044;BME280;64740;34.694;33.088;2023-04-06T15:06:12;1038.2;;;24.5;40.5
76044;BME280;64740;34.694;33.088;2023-04-06T15:11:40;1038.1;;;24.2;40.5
76044;BME280;64740;34.694;33.088;2023-04-06T15:16:20;1038;;;24.1;41
76044;BME280;64740;34.694;33.088;2023-04-06T15:21:40;1037.9;;;24;41.4
76044;BME280;64740;34.694;33.088;2023-04-06T15:26:06;1037.9;;;23.7;41.3
76044;BME280;64740;34.694;33.088;2023-04-06T15:31:00;1038;;;23.4;42.1
76044;BME280;64740;34.694;33.088;2023-04-06T15:36:40;1038.1;;;23.1;43.9
76044;BME280;64740;34.694;33.088;2023-04-06T15:41:18;1038.2;;;22.8;44.6
76044;BME280;64740;34.694;33.088;2023-04-06T15:46:40;1038.1;;;22.5;45
76044;BME280;64740;34.694;33.088;2023-04-06T15:51:26;1038.1;;;22.1;46.2
76044;BME280;64740;34.694;33.088;2023-04-06T15:56:00;1038.1;;;21.9;47
76044;BME280;64740;34.694;33.088;2023-04-06T16:01:40;1038.2;;;21.6;47.6
76044;BME280;64740;34.694;33.088;2023-04-06T16:06:20;1038.3;;;21.4;48.3
76044;BME280;64740;34.694;33.088;2023-04-06T16:11:40;1038.2;;;21.2;48.7
76044;BME280;64740;34.694;33.088;2023-04-06T16:16:24;1038.3;;;21.2;48.9
76044;BME280;64740;34.694;33.088;2023-04-06T16:21:00;1038.4;;;21.1;49.1
76044;BME280;64740;34.694;33.088;2023-04-06T16:26:40;1038.5;;;21;49.2
76044;BME280;64740;34.694;33.088;2023-04-06T16:31:20;1038.6;;;21;49.2
76044;BME280;64740;34.694;33.088;2023-04-06T16:36:40;1038.6;;;20.9;49.3
76044;BME280;64740;34.694;33.088;2023-04-06T16:41:26;1038.6;;;20.9;49.3
76044;BME280;64740;34.694;33.088;2023-04-06T16:46:00;1038.6;;;20.9;49.3
76044;BME280;64740;34.694;33.088;2023-04-06T16:51:40;1038.6;;;20.8;49.2
76044;BME280;64740;34.694;33.088;2023-04-06T16:56:18;1038.6;;;20.8;49.1
76044;BME280;64740;34.694;33.088;2023-04-06T17:01:40;1038.6;;;20.8;49
76044;BME280;64740;34.694;33.088;2023-04-06T17:06:26;1038.7;;;20.8;48.9
76044;BME280;64740;34.694;33.088;2023-04-06T17:11:08;1038.7;;;20.8;48.8
76044;BME280;64740;34.694;33.088;2023-04-06T17:16:40;1038.8;;;20.8;48.8
76044;BME280;64740;34.694;33.088;2023-04-06T17:21:30;1039;;;20.8;48.6
76044;BME280;64740;34.694;33.088;2023-04-06T17:26:40;1039;;;20.8;48.4
76044;BME280;64740;34.694;33.088;2023-04-06T17:31:26;1039.1;;;20.8;48.4
76044;BME280;64740;34.694;33.088;2023-04-06T17:36:00;1039;;;20.7;48.4
76044;BME280;64740;34.694;33.088;2023-04-06T17:41:40;1039.1;;;20.7;48.2
76044;BME280;64740;34.694;33.088;2023-04-06T17:46:20;1039.2;;;20.7;48.1
76044;BME280;64740;34.694;33.088;2023-04-06T17:51:40;1039.2;;;20.7;48
76044;BME280;64740;34.694;33.088;2023-04-06T17:56:26;1039.2;;;20.7;47.8
76044;BME280;64740;34.694;33.088;2023-04-06T18:01:04;1039.3;;;20.7;47.6
76044;BME280;64740;34.694;33.088;2023-04-06T18:06:41;1039.4;;;20.7;47.6
76044;BME280;64740;34.694;33.088;2023-04-06T18:11:00;1039.4;;;20.7;47.5
76044;BME280;64740;34.694;33.088;2023-04-06T18:16:40;1039.2;;;20.7;47.6
76044;BME280;64740;34.694;33.088;2023-04-06T18:21:28;1038.9;;;20.7;47.5
76044;BME280;64740;34.694;33.088;2023-04-06T18:26:22;1039.1;;;20.7;47.4
76044;BME280;64740;34.694;33.088;2023-04-06T18:31:42;1039.1;;;20.7;47.5
76044;BME280;64740;34.694;33.088;2023-04-06T18:36:24;1039.1;;;20.7;47.4
76044;BME280;64740;34.694;33.088;2023-04-06T18:41:42;1039.1;;;20.7;47.5
76044;BME280;64740;34.694;33.088;2023-04-06T18:46:00;1039;;;20.7;47.5
76044;BME280;64740;34.694;33.088;2023-04-06T18:51:22;1039;;;20.7;47.6
76044;BME280;64740;34.694;33.088;2023-04-06T18:56:30;1038.9;;;20.7;47.6
76044;BME280;64740;34.694;33.088;2023-04-06T19:01:34;1038.9;;;20.7;47.6
76044;BME280;64740;34.694;33.088;2023-04-06T19:06:42;1039.1;;;20.7;47.6
76044;BME280;64740;34.694;33.088;2023-04-06T19:11:40;1038.9;;;20.6;47.7
76044;BME280;64740;34.694;33.088;2023-04-06T19:16:12;1038.8;;;20.6;47.9
76044;BME280;64740;34.694;33.088;2023-04-06T19:21:42;1038.8;;;20.6;48
76044;BME280;64740;34.694;33.088;2023-04-06T19:26:22;1039;;;20.6;48.1
76044;BME280;64740;34.694;33.088;2023-04-06T19:31:42;1038.9;;;20.6;48.2
76044;BME280;64740;34.694;33.088;2023-04-06T19:36:00;1038.9;;;20.6;48.2
76044;BME280;64740;34.694;33.088;2023-04-06T19:41:20;1038.9;;;20.6;48.3
76044;BME280;64740;34.694;33.088;2023-04-06T19:46:40;1038.9;;;20.6;48.1
76044;BME280;64740;34.694;33.088;2023-04-06T19:51:18;1038.9;;;20.6;48
76044;BME280;64740;34.694;33.088;2023-04-06T19:56:42;1038.9;;;20.6;48
76044;BME280;64740;34.694;33.088;2023-04-06T20:01:26;1038.8;;;20.6;48.1
76044;BME280;64740;34.694;33.088;2023-04-06T20:06:10;1038.8;;;20.5;48.1
76044;BME280;64740;34.694;33.088;2023-04-06T20:11:32;1038.8;;;20.5;48
76044;BME280;64740;34.694;33.088;2023-04-06T20:16:12;1038.9;;;20.4;47.9
76044;BME280;64740;34.694;33.088;2023-04-06T20:21:42;1038.8;;;20.4;48
76044;BME280;64740;34.694;33.088;2023-04-06T20:26:16;1038.8;;;20.4;48.1
76044;BME280;64740;34.694;33.088;2023-04-06T20:31:00;1038.9;;;20.4;48.2
76044;BME280;64740;34.694;33.088;2023-04-06T20:36:42;1038.9;;;20.3;48.2
76044;BME280;64740;34.694;33.088;2023-04-06T20:41:28;1038.7;;;20.3;48.2
76044;BME280;64740;34.694;33.088;2023-04-06T20:46:28;1038.7;;;20.2;48.3
76044;BME280;64740;34.694;33.088;2023-04-06T20:51:42;1038.6;;;20.2;48.3
76044;BME280;64740;34.694;33.088;2023-04-06T20:56:10;1038.3;;;20.3;48.4
76044;BME280;64740;34.694;33.088;2023-04-06T21:01:42;1038.3;;;20.3;48.3
76044;BME280;64740;34.694;33.088;2023-04-06T21:06:24;1038.4;;;20.2;48.4
76044;BME280;64740;34.694;33.088;2023-04-06T21:11:28;1038.2;;;20.2;48.5
76044;BME280;64740;34.694;33.088;2023-04-06T21:16:42;1038.2;;;20.2;48.4
76044;BME280;64740;34.694;33.088;2023-04-06T21:21:00;1038.2;;;20.2;48.4
76044;BME280;64740;34.694;33.088;2023-04-06T21:26:42;1038.3;;;20.1;48.2
76044;BME280;64740;34.694;33.088;2023-04-06T21:31:22;1038.1;;;20.1;48.3
76044;BME280;64740;34.694;33.088;2023-04-06T21:36:18;1037.9;;;20.2;48.5
76044;BME280;64740;34.694;33.088;2023-04-06T21:41:42;1037.8;;;20.2;48.6
76044;BME280;64740;34.694;33.088;2023-04-06T21:46:10;1037.8;;;20.3;48.6
76044;BME280;64740;34.694;33.088;2023-04-06T21:51:42;1037.8;;;20.3;48.6
76044;BME280;64740;34.694;33.088;2023-04-06T21:56:20;1037.8;;;20.3;48.5
76044;BME280;64740;34.694;33.088;2023-04-06T22:01:22;1037.8;;;20.2;48.5
76044;BME280;64740;34.694;33.088;2023-04-06T22:06:42;1037.8;;;20.1;48.6
76044;BME280;64740;34.694;33.088;2023-04-06T22:11:04;1037.8;;;20.1;48.8
76044;BME280;64740;34.694;33.088;2023-04-06T22:16:42;1037.7;;;20.1;48.6
76044;BME280;64740;34.694;33.088;2023-04-06T22:21:22;1037.6;;;20;48.7
76044;BME280;64740;34.694;33.088;2023-04-06T22:26:28;1037.5;;;19.9;48.9
76044;BME280;64740;34.694;33.088;2023-04-06T22:31:42;1037.5;;;19.9;49
76044;BME280;64740;34.694;33.088;2023-04-06T22:36:10;1037.6;;;19.9;49
76044;BME280;64740;34.694;33.088;2023-04-06T22:41:42;1037.5;;;19.9;48.9
76044;BME280;64740;34.694;33.088;2023-04-06T22:46:00;1037.4;;;19.9;48.8
76044;BME280;64740;34.694;33.088;2023-04-06T22:51:28;1037.4;;;19.9;48.8
76044;BME280;64740;34.694;33.088;2023-04-06T22:56:42;1037.4;;;19.9;48.8
76044;BME280;64740;34.694;33.088;2023-04-06T23:01:12;1037.4;;;19.9;48.8
76044;BME280;64740;34.694;33.088;2023-04-06T23:06:42;1037.4;;;19.7;48.8
76044;BME280;64740;34.694;33.088;2023-04-06T23:11:00;1037.4;;;19.7;49
76044;BME280;64740;34.694;33.088;2023-04-06T23:16:42;1037.2;;;19.7;49.3
76044;BME280;64740;34.694;33.088;2023-04-06T23:21:42;1037.2;;;19.8;49.2
76044;BME280;64740;34.694;33.088;2023-04-06T23:26:12;1037;;;19.8;49.2
76044;BME280;64740;34.694;33.088;2023-04-06T23:31:30;1036.9;;;19.9;49.1
76044;BME280;64740;34.694;33.088;2023-04-06T23:36:12;1036.7;;;19.9;49
76044;BME280;64740;34.694;33.088;2023-04-06T23:41:28;1036.6;;;19.9;48.8
76044;BME280;64740;34.694;33.088;2023-04-06T23:46:42;1036.5;;;19.9;48.9
76044;BME280;64740;34.694;33.088;2023-04-06T23:51:12;1036.4;;;19.9;48.3
76044;BME280;64740;34.694;33.088;2023-04-06T23:56:42;1036.3;;;19.9;48.1
